createdAt,value
2022-10-19T00:01:19.670Z,3.78
2022-10-19T00:06:20.160Z,2.42
2022-10-19T00:08:48.138Z,3.70
2022-10-19T00:11:17.570Z,2.92
2022-10-19T00:13:45.809Z,2.80
2022-10-19T00:16:15.608Z,2.58
2022-10-19T00:18:45.193Z,2.28
2022-10-19T00:21:15.551Z,2.95
2022-10-19T00:23:43.973Z,3.00
2022-10-19T00:26:12.363Z,3.13
2022-10-19T00:28:42.225Z,2.58
2022-10-19T00:31:14.368Z,3.08
2022-10-19T00:33:44.253Z,2.50
2022-10-19T00:36:17.871Z,2.70
2022-10-19T00:38:46.583Z,2.95
2022-10-19T00:41:15.635Z,2.55
2022-10-19T00:43:57.998Z,2.60
2022-10-19T00:46:27.089Z,2.65
2022-10-19T00:49:01.093Z,2.67
2022-10-19T00:51:30.999Z,2.40
2022-10-19T00:53:59.419Z,2.53
2022-10-19T00:56:27.723Z,2.30
2022-10-19T00:58:57.319Z,3.30
2022-10-19T01:01:27.231Z,3.55
2022-10-19T01:03:55.369Z,2.77
2022-10-19T01:06:25.645Z,2.90
2022-10-19T01:08:53.685Z,1.92
2022-10-19T01:11:36.555Z,2.45
2022-10-19T01:14:19.048Z,2.40
2022-10-19T01:16:54.591Z,2.25
2022-10-19T01:20:01.337Z,2.55
2022-10-19T01:22:46.239Z,2.10
2022-10-19T01:25:24.355Z,2.55
2022-10-19T01:28:05.256Z,2.17
2022-10-19T01:30:46.841Z,2.35
2022-10-19T01:33:40.718Z,2.30
2022-10-19T01:36:22.114Z,2.50
2022-10-19T01:38:55.601Z,2.55
2022-10-19T01:41:34.185Z,2.08
2022-10-19T01:44:09.853Z,2.92
2022-10-19T01:46:41.518Z,2.28
2022-10-19T01:49:14.728Z,1.90
2022-10-19T01:51:47.075Z,2.30
2022-10-19T01:54:18.011Z,2.78
2022-10-19T01:56:48.887Z,2.30
2022-10-19T01:59:20.278Z,2.00
2022-10-19T02:01:52.393Z,2.92
2022-10-19T02:04:22.612Z,2.78
2022-10-19T02:06:51.924Z,2.22
2022-10-19T02:09:20.416Z,2.42
2022-10-19T02:11:54.701Z,2.70
2022-10-19T02:14:28.787Z,2.20
2022-10-19T02:17:03.187Z,1.95
2022-10-19T02:19:31.212Z,2.30
2022-10-19T02:21:59.532Z,2.45
2022-10-19T02:24:27.525Z,2.60
2022-10-19T02:26:56.478Z,2.40
2022-10-19T02:29:24.656Z,2.47
2022-10-19T02:31:52.662Z,2.05
2022-10-19T02:34:24.813Z,2.45
2022-10-19T02:36:52.874Z,2.45
2022-10-19T02:39:21.440Z,2.13
2022-10-19T02:41:54.411Z,2.45
2022-10-19T02:44:27.188Z,2.40
2022-10-19T02:47:01.766Z,2.08
2022-10-19T02:49:31.873Z,2.80
2022-10-19T02:52:02.944Z,2.30
2022-10-19T02:54:31.176Z,2.10
2022-10-19T02:56:59.212Z,2.42
2022-10-19T02:59:27.193Z,2.50
2022-10-19T03:01:55.146Z,2.53
2022-10-19T03:04:23.103Z,2.80
2022-10-19T03:06:52.427Z,2.33
2022-10-19T03:09:20.585Z,2.10
2022-10-19T03:11:48.546Z,2.17
2022-10-19T03:14:16.473Z,2.88
2022-10-19T03:16:44.412Z,2.55
2022-10-19T03:19:12.372Z,2.28
2022-10-19T03:21:40.332Z,2.55
2022-10-19T03:24:09.650Z,2.50
2022-10-19T03:26:37.643Z,2.30
2022-10-19T03:29:05.889Z,2.50
2022-10-19T03:31:33.875Z,2.88
2022-10-19T03:34:02.120Z,2.17
2022-10-19T03:36:31.634Z,2.00
2022-10-19T03:39:01.366Z,1.98
2022-10-19T03:41:33.643Z,2.20
2022-10-19T03:44:01.999Z,2.03
2022-10-19T03:46:30.235Z,2.53
2022-10-19T03:48:58.279Z,2.15
2022-10-19T03:51:27.793Z,2.80
2022-10-19T03:53:57.173Z,2.50
2022-10-19T03:56:27.220Z,2.80
2022-10-19T03:58:58.248Z,2.15
2022-10-19T04:01:28.492Z,2.58
2022-10-19T04:03:57.881Z,2.17
2022-10-19T04:06:27.553Z,2.40
2022-10-19T04:08:55.845Z,2.58
2022-10-19T04:11:25.671Z,2.43
2022-10-19T04:13:55.219Z,3.00
2022-10-19T04:16:26.126Z,2.05
2022-10-19T04:18:54.031Z,2.40
2022-10-19T04:21:24.138Z,2.17
2022-10-19T04:23:53.570Z,2.35
2022-10-19T04:26:22.104Z,2.50
2022-10-19T04:28:50.480Z,2.38
2022-10-19T04:31:18.427Z,2.20
2022-10-19T04:33:47.777Z,2.50
2022-10-19T04:36:15.726Z,2.45
2022-10-19T04:38:43.820Z,2.53
2022-10-19T04:41:13.893Z,3.08
2022-10-19T04:43:42.151Z,2.50
2022-10-19T04:46:11.560Z,2.25
2022-10-19T04:48:40.966Z,2.17
2022-10-19T04:51:10.779Z,2.85
2022-10-19T04:53:40.341Z,3.15
2022-10-19T04:56:10.430Z,2.63
2022-10-19T04:58:38.430Z,3.50
2022-10-19T05:01:10.704Z,2.38
2022-10-19T05:03:38.995Z,2.70
2022-10-19T05:06:07.706Z,2.42
2022-10-19T05:08:37.522Z,2.55
2022-10-19T05:11:07.756Z,2.58
2022-10-19T05:13:36.356Z,2.72
2022-10-19T05:16:06.411Z,3.05
2022-10-19T05:18:35.291Z,3.15
2022-10-19T05:21:05.084Z,2.45
2022-10-19T05:26:04.413Z,2.60
2022-10-19T05:28:32.943Z,2.60
2022-10-19T05:31:07.633Z,3.30
2022-10-19T05:33:35.643Z,2.67
2022-10-19T05:36:15.280Z,2.85
2022-10-19T05:38:43.419Z,2.35
2022-10-19T05:41:12.901Z,2.63
2022-10-19T05:43:41.687Z,3.10
2022-10-19T05:46:11.657Z,2.67
2022-10-19T05:48:40.811Z,2.60
2022-10-19T05:51:11.832Z,2.60
2022-10-19T05:53:39.928Z,3.22
2022-10-19T05:56:09.463Z,3.17
2022-10-19T05:58:38.883Z,2.60
2022-10-19T06:01:08.282Z,3.42
2022-10-19T06:03:36.683Z,3.03
2022-10-19T06:06:05.335Z,3.72
2022-10-19T06:08:33.409Z,4.25
2022-10-19T06:11:09.586Z,3.20
2022-10-19T06:13:39.474Z,3.65
2022-10-19T06:16:08.874Z,2.85
2022-10-19T06:18:37.635Z,3.08
2022-10-19T06:21:07.170Z,4.15
2022-10-19T06:23:36.361Z,3.05
2022-10-19T06:26:05.378Z,3.47
2022-10-19T06:28:33.743Z,3.38
2022-10-19T06:31:06.038Z,3.35
2022-10-19T06:33:36.619Z,3.15
2022-10-19T06:36:08.473Z,3.35
2022-10-19T06:38:36.496Z,3.95
2022-10-19T06:41:05.253Z,3.30
2022-10-19T06:43:33.894Z,3.15
2022-10-19T06:46:07.237Z,3.53
2022-10-19T06:48:35.556Z,3.50
2022-10-19T06:51:06.392Z,3.17
2022-10-19T06:53:35.510Z,3.88
2022-10-19T06:56:05.741Z,3.65
2022-10-19T06:58:37.373Z,3.05
2022-10-19T07:01:08.634Z,3.55
2022-10-19T07:03:37.983Z,3.53
2022-10-19T07:06:08.559Z,3.70
2022-10-19T07:08:38.025Z,2.60
2022-10-19T07:11:08.215Z,3.28
2022-10-19T07:13:36.943Z,3.80
2022-10-19T07:16:07.924Z,3.90
2022-10-19T07:18:37.092Z,3.80
2022-10-19T07:21:07.883Z,4.03
2022-10-19T07:23:37.867Z,2.95
2022-10-19T07:26:07.834Z,3.40
2022-10-19T07:28:39.450Z,3.63
2022-10-19T07:31:11.019Z,2.92
2022-10-19T07:33:39.742Z,2.85
2022-10-19T07:36:10.114Z,3.35
2022-10-19T07:38:38.756Z,3.13
2022-10-19T07:41:09.083Z,2.72
2022-10-19T07:43:37.364Z,2.85
2022-10-19T07:46:07.124Z,2.78
2022-10-19T07:48:36.989Z,3.30
2022-10-19T07:51:07.017Z,3.47
2022-10-19T07:53:35.705Z,2.72
2022-10-19T07:56:50.753Z,2.58
2022-10-19T07:59:18.830Z,2.85
2022-10-19T08:01:48.799Z,2.58
2022-10-19T08:07:07.074Z,2.20
2022-10-19T08:12:23.332Z,2.40
2022-10-19T08:14:51.458Z,2.80
2022-10-19T08:17:19.924Z,2.55
2022-10-19T08:19:49.734Z,2.88
2022-10-19T08:22:17.957Z,3.10
2022-10-19T08:24:46.017Z,2.50
2022-10-19T08:27:14.846Z,2.50
2022-10-19T08:29:42.907Z,2.17
2022-10-19T08:32:10.952Z,2.33
2022-10-19T08:34:39.043Z,2.10
2022-10-19T08:37:19.790Z,3.08
2022-10-19T08:39:54.322Z,2.40
2022-10-19T08:42:28.312Z,2.75
2022-10-19T08:45:17.827Z,2.15
2022-10-19T08:47:59.401Z,2.40
2022-10-19T08:50:30.751Z,2.50
2022-10-19T08:53:04.904Z,1.75
2022-10-19T08:55:43.864Z,2.00
2022-10-19T08:58:25.647Z,1.70
2022-10-19T09:01:00.593Z,1.65
2022-10-19T09:03:55.861Z,2.05
2022-10-19T09:06:28.261Z,1.80
2022-10-19T09:08:59.585Z,1.77
2022-10-19T09:11:32.228Z,1.42
2022-10-19T09:14:06.847Z,1.60
2022-10-19T09:16:35.973Z,1.65
2022-10-19T09:19:05.158Z,1.38
2022-10-19T09:21:46.955Z,1.45
2022-10-19T09:24:28.028Z,1.42
2022-10-19T09:26:58.613Z,1.20
2022-10-19T09:29:33.256Z,1.20
2022-10-19T09:32:06.034Z,3.85
2022-10-19T09:34:36.696Z,1.45
2022-10-19T09:37:06.682Z,1.02
2022-10-19T09:39:36.579Z,1.00
2022-10-19T09:42:09.865Z,1.30
2022-10-19T09:44:38.253Z,1.17
2022-10-19T09:47:21.062Z,0.98
2022-10-19T09:49:50.161Z,1.20
2022-10-19T09:52:28.942Z,0.90
2022-10-19T09:55:04.746Z,0.70
2022-10-19T09:57:34.688Z,1.02
2022-10-19T10:00:03.137Z,1.38
2022-10-19T10:02:35.281Z,6.70
2022-10-19T10:05:08.584Z,1.20
2022-10-19T10:07:39.894Z,0.93
2022-10-19T10:10:25.664Z,1.58
2022-10-19T10:12:56.504Z,0.93
2022-10-19T10:15:27.336Z,1.10
2022-10-19T10:17:57.969Z,1.45
2022-10-19T10:20:29.538Z,1.00
2022-10-19T10:22:59.490Z,1.63
2022-10-19T10:25:32.078Z,1.05
2022-10-19T10:28:02.478Z,1.30
2022-10-19T10:30:36.149Z,1.60
2022-10-19T10:33:15.886Z,1.15
2022-10-19T10:35:57.709Z,0.98
2022-10-19T10:38:28.046Z,1.77
2022-10-19T10:41:02.073Z,0.90
2022-10-19T10:43:33.032Z,1.20
2022-10-19T10:46:05.163Z,1.00
2022-10-19T10:48:36.430Z,8.02
2022-10-19T10:51:09.458Z,1.80
2022-10-19T10:53:45.282Z,0.70
2022-10-19T10:56:25.787Z,0.82
2022-10-19T10:58:59.227Z,0.70
2022-10-19T11:01:31.687Z,3.60
2022-10-19T11:04:04.582Z,1.35
2022-10-19T11:06:36.316Z,1.10
2022-10-19T11:09:14.653Z,1.00
2022-10-19T11:11:48.326Z,0.88
2022-10-19T11:14:35.485Z,1.00
2022-10-19T11:17:08.116Z,1.00
2022-10-19T11:19:39.094Z,0.80
2022-10-19T11:22:17.880Z,1.08
2022-10-19T11:25:00.763Z,1.20
2022-10-19T11:27:44.325Z,1.00
2022-10-19T11:30:17.325Z,0.80
2022-10-19T11:32:58.626Z,1.10
2022-10-19T11:35:37.358Z,1.08
2022-10-19T11:38:21.310Z,1.13
2022-10-19T11:41:17.818Z,0.75
2022-10-19T11:44:00.431Z,0.80
2022-10-19T11:46:35.799Z,0.80
2022-10-19T11:49:20.541Z,1.25
2022-10-19T11:51:57.492Z,1.10
2022-10-19T11:54:39.517Z,0.90
2022-10-19T11:57:13.771Z,1.10
2022-10-19T12:00:37.626Z,1.33
2022-10-19T12:03:49.500Z,0.88
2022-10-19T12:06:25.082Z,1.00
2022-10-19T12:09:11.128Z,0.93
2022-10-19T12:11:54.216Z,1.48
2022-10-19T12:14:25.906Z,0.88
2022-10-19T12:16:58.326Z,0.63
2022-10-19T12:19:30.550Z,0.90
2022-10-19T12:22:02.827Z,1.17
2022-10-19T12:24:32.863Z,0.80
2022-10-19T12:27:02.363Z,0.98
2022-10-19T12:29:35.891Z,0.80
2022-10-19T12:32:07.514Z,0.80
2022-10-19T12:34:42.925Z,0.80
2022-10-19T12:37:16.427Z,0.93
2022-10-19T12:39:50.703Z,1.02
2022-10-19T12:42:26.477Z,1.27
2022-10-19T12:45:23.853Z,0.70
2022-10-19T12:48:22.258Z,0.98
2022-10-19T12:51:09.493Z,0.70
2022-10-19T12:53:41.320Z,0.80
2022-10-19T12:56:17.152Z,1.10
2022-10-19T12:59:03.245Z,0.70
2022-10-19T13:01:45.067Z,0.80
2022-10-19T13:04:17.202Z,1.00
2022-10-19T13:06:49.299Z,0.60
2022-10-19T13:09:25.846Z,0.75
2022-10-19T13:12:45.044Z,0.80
2022-10-19T13:15:59.071Z,0.50
2022-10-19T13:19:09.501Z,0.70
2022-10-19T13:22:14.251Z,1.08
2022-10-19T13:24:43.913Z,0.80
2022-10-19T13:27:38.863Z,1.10
2022-10-19T13:30:47.528Z,1.15
2022-10-19T13:33:49.905Z,1.65
2022-10-19T13:36:18.803Z,0.80
2022-10-19T13:39:03.950Z,0.80
2022-10-19T13:41:47.887Z,1.00
2022-10-19T13:44:22.143Z,1.48
2022-10-19T13:46:58.671Z,0.70
2022-10-19T13:49:51.066Z,0.70
2022-10-19T13:52:44.205Z,0.80
2022-10-19T13:55:47.226Z,1.27
2022-10-19T13:58:47.901Z,0.80
2022-10-19T14:01:27.206Z,0.80
2022-10-19T14:04:21.645Z,0.70
2022-10-19T14:06:54.818Z,0.60
2022-10-19T14:09:59.013Z,0.70
2022-10-19T14:12:32.166Z,0.60
2022-10-19T14:15:00.485Z,0.88
2022-10-19T14:17:34.095Z,1.13
2022-10-19T14:20:04.170Z,0.73
2022-10-19T14:22:34.546Z,0.80
2022-10-19T14:25:06.274Z,0.70
2022-10-19T14:27:37.199Z,0.70
2022-10-19T14:30:06.583Z,1.65
2022-10-19T14:32:36.329Z,0.63
2022-10-19T14:35:14.517Z,0.80
2022-10-19T14:37:44.985Z,0.90
2022-10-19T14:40:27.896Z,1.08
2022-10-19T14:42:58.874Z,0.80
2022-10-19T14:45:29.410Z,1.45
2022-10-19T14:48:00.303Z,0.90
2022-10-19T14:50:43.823Z,1.35
2022-10-19T14:53:23.131Z,3.15
2022-10-19T14:55:53.861Z,0.80
2022-10-19T14:58:26.623Z,0.77
2022-10-19T15:00:56.304Z,0.75
2022-10-19T15:03:29.483Z,0.80
2022-10-19T15:06:00.885Z,0.70
2022-10-19T15:08:39.004Z,1.05
2022-10-19T15:11:08.925Z,0.80
2022-10-19T15:13:43.058Z,0.80
2022-10-19T15:16:30.547Z,0.80
2022-10-19T15:19:03.126Z,1.05
2022-10-19T15:21:33.485Z,1.08
2022-10-19T15:24:17.062Z,0.60
2022-10-19T15:27:06.655Z,0.90
2022-10-19T15:29:40.557Z,0.70
2022-10-19T15:32:18.109Z,0.90
2022-10-19T15:34:48.493Z,0.88
2022-10-19T15:37:22.719Z,0.77
2022-10-19T15:39:52.907Z,1.40
2022-10-19T15:42:47.049Z,1.13
2022-10-19T15:45:35.113Z,0.65
2022-10-19T15:48:51.068Z,1.45
2022-10-19T15:51:37.489Z,1.08
2022-10-19T15:54:09.034Z,0.80
2022-10-19T15:56:40.840Z,0.77
2022-10-19T15:59:14.205Z,0.88
2022-10-19T16:01:44.537Z,1.00
2022-10-19T16:04:13.212Z,1.00
2022-10-19T16:06:44.108Z,0.95
2022-10-19T16:09:17.842Z,0.90
2022-10-19T16:11:46.097Z,0.90
2022-10-19T16:14:14.285Z,1.00
2022-10-19T16:16:44.024Z,0.93
2022-10-19T16:19:15.652Z,1.17
2022-10-19T16:21:49.294Z,1.35
2022-10-19T16:24:18.488Z,1.13
2022-10-19T16:26:46.646Z,1.40
2022-10-19T16:29:14.945Z,1.30
2022-10-19T16:31:45.629Z,1.13
2022-10-19T16:34:14.260Z,1.23
2022-10-19T16:36:43.632Z,1.75
2022-10-19T16:39:12.217Z,1.38
2022-10-19T16:41:40.890Z,1.35
2022-10-19T16:44:11.781Z,1.10
2022-10-19T16:46:41.536Z,1.95
2022-10-19T16:49:11.696Z,1.40
2022-10-19T16:51:41.392Z,1.30
2022-10-19T16:54:12.652Z,1.50
2022-10-19T16:56:47.993Z,1.45
2022-10-19T16:59:19.738Z,1.40
2022-10-19T17:01:51.672Z,1.50
2022-10-19T17:04:27.107Z,1.30
2022-10-19T17:06:55.948Z,1.58
2022-10-19T17:09:41.373Z,1.33
2022-10-19T17:12:16.106Z,1.40
2022-10-19T17:14:46.372Z,1.40
2022-10-19T17:17:17.970Z,1.67
2022-10-19T17:19:51.413Z,1.48
2022-10-19T17:22:23.064Z,1.50
2022-10-19T17:24:54.832Z,1.80
2022-10-19T17:30:04.301Z,2.35
2022-10-19T17:32:35.528Z,1.90
2022-10-19T17:35:09.952Z,1.90
2022-10-19T17:37:38.233Z,2.70
2022-10-19T17:40:10.956Z,2.00
2022-10-19T17:42:43.650Z,2.15
2022-10-19T17:45:16.006Z,3.10
2022-10-19T17:47:49.785Z,2.70
2022-10-19T17:50:25.260Z,2.05
2022-10-19T17:52:56.888Z,2.20
2022-10-19T17:55:28.544Z,2.00
2022-10-19T17:58:01.875Z,2.22
2022-10-19T18:00:32.591Z,1.80
2022-10-19T18:03:06.057Z,1.63
2022-10-19T18:05:39.031Z,1.73
2022-10-19T18:08:08.035Z,1.85
2022-10-19T18:10:38.018Z,1.38
2022-10-19T18:13:06.683Z,1.30
2022-10-19T18:15:35.296Z,1.30
2022-10-19T18:18:03.709Z,1.33
2022-10-19T18:20:32.182Z,1.20
2022-10-19T18:23:01.975Z,1.58
2022-10-19T18:25:42.532Z,1.08
2022-10-19T18:28:19.525Z,1.45
2022-10-19T18:30:47.715Z,1.40
2022-10-19T18:33:16.088Z,1.40
2022-10-19T18:35:44.719Z,1.30
2022-10-19T18:38:14.701Z,1.30
2022-10-19T18:40:42.899Z,1.48
2022-10-19T18:43:12.190Z,1.05
2022-10-19T18:45:41.315Z,1.20
2022-10-19T18:48:10.397Z,1.25
2022-10-19T18:50:39.572Z,1.17
2022-10-19T18:53:08.090Z,1.63
2022-10-19T18:55:40.751Z,1.48
2022-10-19T18:58:09.602Z,1.00
2022-10-19T19:00:45.783Z,1.30
2022-10-19T19:03:17.158Z,1.20
2022-10-19T19:05:56.836Z,1.05
2022-10-19T19:08:35.321Z,1.30
2022-10-19T19:11:14.089Z,1.20
2022-10-19T19:13:51.794Z,1.20
2022-10-19T19:16:22.149Z,1.23
2022-10-19T19:18:55.674Z,1.52
2022-10-19T19:21:27.402Z,1.25
2022-10-19T19:23:57.734Z,0.90
2022-10-19T19:26:32.701Z,1.13
2022-10-19T19:29:02.964Z,1.42
2022-10-19T19:31:32.318Z,1.00
2022-10-19T19:34:03.211Z,1.10
2022-10-19T19:36:32.402Z,1.17
2022-10-19T19:39:04.954Z,1.30
2022-10-19T19:41:36.209Z,0.93
2022-10-19T19:44:05.603Z,1.15
2022-10-19T19:46:35.841Z,1.05
2022-10-19T19:49:07.101Z,1.00
2022-10-19T19:51:39.481Z,1.00
2022-10-19T19:54:10.213Z,3.50
2022-10-19T19:56:42.893Z,1.70
2022-10-19T19:59:14.832Z,1.10
2022-10-19T20:01:48.055Z,1.10
2022-10-19T20:04:22.126Z,1.00
2022-10-19T20:06:51.021Z,1.35
2022-10-19T20:09:20.688Z,0.95
2022-10-19T20:11:53.806Z,1.10
2022-10-19T20:14:23.852Z,0.80
2022-10-19T20:16:52.725Z,1.05
2022-10-19T20:19:30.506Z,1.10
2022-10-19T20:22:09.104Z,0.82
2022-10-19T20:24:39.036Z,0.90
2022-10-19T20:27:12.308Z,1.50
2022-10-19T20:29:42.571Z,1.20
2022-10-19T20:32:14.664Z,1.13
2022-10-19T20:34:43.367Z,1.02
2022-10-19T20:37:16.874Z,1.00
2022-10-19T20:39:45.435Z,1.20
2022-10-19T20:42:18.630Z,1.10
2022-10-19T20:44:48.749Z,1.13
2022-10-19T20:47:17.382Z,1.63
2022-10-19T20:49:45.865Z,1.08
2022-10-19T20:52:14.420Z,0.93
2022-10-19T20:54:42.771Z,1.30
2022-10-19T20:57:11.673Z,1.20
2022-10-19T20:59:42.011Z,0.90
2022-10-19T21:02:12.952Z,1.30
2022-10-19T21:04:41.653Z,1.08
2022-10-19T21:07:10.270Z,1.17
2022-10-19T21:09:38.774Z,1.20
2022-10-19T21:12:06.886Z,1.15
2022-10-19T21:14:37.105Z,1.67
2022-10-19T21:17:07.041Z,1.13
2022-10-19T21:19:37.505Z,1.20
2022-10-19T21:22:07.889Z,1.10
2022-10-19T21:24:37.820Z,1.20
2022-10-19T21:27:09.393Z,1.20
2022-10-19T21:29:38.503Z,1.20
2022-10-19T21:32:08.194Z,1.38
2022-10-19T21:34:36.600Z,1.20
2022-10-19T21:37:05.118Z,1.10
2022-10-19T21:39:34.195Z,1.27
2022-10-19T21:42:02.730Z,1.20
2022-10-19T21:44:31.025Z,1.45
2022-10-19T21:46:59.345Z,1.20
2022-10-19T21:49:29.054Z,1.52
2022-10-19T21:51:57.214Z,1.30
2022-10-19T21:54:26.243Z,0.90
2022-10-19T21:56:55.802Z,1.35
2022-10-19T21:59:23.972Z,1.30
2022-10-19T22:01:52.325Z,1.40
2022-10-19T22:04:20.411Z,1.00
2022-10-19T22:06:50.846Z,1.23
2022-10-19T22:09:24.113Z,1.33
2022-10-19T22:11:54.662Z,1.25
2022-10-19T22:14:22.866Z,1.33
2022-10-19T22:16:50.976Z,1.17
2022-10-19T22:19:19.807Z,1.10
2022-10-19T22:21:49.475Z,1.38
2022-10-19T22:24:17.747Z,1.33
2022-10-19T22:26:47.776Z,1.88
2022-10-19T22:29:16.210Z,1.60
2022-10-19T22:31:45.521Z,1.30
2022-10-19T22:34:15.787Z,1.45
2022-10-19T22:36:45.757Z,2.38
2022-10-19T22:39:16.756Z,1.35
2022-10-19T22:41:46.431Z,1.88
2022-10-19T22:44:17.856Z,1.33
2022-10-19T22:46:53.648Z,1.20
2022-10-19T22:49:22.626Z,1.45
2022-10-19T22:51:56.425Z,1.20
2022-10-19T22:54:35.371Z,1.70
2022-10-19T22:57:05.846Z,1.83
2022-10-19T22:59:34.503Z,1.50
2022-10-19T23:02:04.971Z,1.67
2022-10-19T23:04:34.126Z,1.35
2022-10-19T23:07:02.475Z,1.65
2022-10-19T23:09:35.298Z,1.60
2022-10-19T23:12:06.753Z,1.33
2022-10-19T23:14:35.220Z,1.70
2022-10-19T23:17:05.187Z,1.65
2022-10-19T23:19:44.941Z,1.50
2022-10-19T23:22:16.424Z,1.63
2022-10-19T23:24:47.041Z,1.50
2022-10-19T23:27:17.421Z,1.70
2022-10-19T23:29:48.985Z,2.05
2022-10-19T23:32:22.512Z,1.98
2022-10-19T23:34:58.626Z,1.83
2022-10-19T23:37:33.308Z,2.42
2022-10-19T23:40:09.378Z,2.05
2022-10-19T23:42:43.229Z,2.00
2022-10-19T23:45:24.019Z,2.30
2022-10-19T23:47:59.374Z,2.20
2022-10-19T23:50:33.648Z,2.22
2022-10-19T23:53:08.562Z,3.33
2022-10-19T23:55:42.042Z,2.80
2022-10-19T23:58:12.750Z,2.60
